Time Latitude Longitude Accuracy (66% radius in meters) Altitude (meters) Speed (km/hour) Bearing (degrees) Battery (%) GPS flag
10:02:27 60.253232 29.795915 0 76.4 0.70156639814377 271.9700012207 1 delete
10:01:54 60.253207 29.796098 0 76.7 1.8339552879333 261.42001342773 1 delete
10:01:46 60.253223 29.796307 0 76.4 2.0182259082794 281.60998535156 1 delete
10:01:43 60.253220 29.796497 0 74.9 3.7327654361725 257.89001464844 1 delete
10:01:40 60.253233 29.796707 0 74.3 3.3554742336273 287.85998535156 1 delete
10:01:35 60.253197 29.796928 0 72.2 2.089257478714 280.10000610352 1 delete
10:01:30 60.253183 29.797138 0 71 3.7307066917419 273.07000732422 1 delete
10:01:27 60.253170 29.797380 0 71.4 4.3123426437378 264.82000732422 1 delete
10:01:24 60.253172 29.797615 0 72.2 3.5474655628204 279.95001220703 1 delete
10:01:21 60.253145 29.797802 0 72.7 3.6946761608124 313.58999633789 1 delete
10:01:18 60.253062 29.797947 0 73.2 3.1099517345428 304.88000488281 1 delete
10:01:15 60.252982 29.798110 0 71.4 3.7893850803375 306.60000610352 1 delete
10:01:12 60.252932 29.798287 0 71.7 3.2808394432068 308.5299987793 1 delete
10:01:09 60.252905 29.798477 0 70.7 3.147011756897 239.69999694824 1 delete
10:01:06 60.252982 29.798643 0 70.2 4.4209489822388 228.00999450684 1 delete
10:01:03 60.253052 29.798812 0 68.4 4.1429991722107 255.41999816895 1 delete
10:01:00 60.253047 29.799032 0 67.8 3.9046828746796 286.85998535156 1 delete
10:00:57 60.253037 29.799268 0 65.9 4.2480025291443 285.32000732422 1 delete
10:00:54 60.253010 29.799520 0 64.1 4.0168924331665 278.98001098633 1 delete
10:00:51 60.252988 29.799733 0 63.4 4.3895511627197 277.0299987793 1 delete
10:00:48 60.252960 29.799972 0 63.1 3.6725430488586 279.67999267578 1 delete
10:00:45 60.252945 29.800178 0 63.9 3.7579870223999 273.16000366211 1 delete
10:00:42 60.252952 29.800390 0 65 2.6204507350922 239.36999511719 1 delete
10:00:38 60.252958 29.800572 0 64.8 3.2221610546112 310.85000610352 1 delete
10:00:35 60.252895 29.800723 0 65.3 3.9216685295105 309.98999023438 1 delete
10:00:32 60.252805 29.800897 0 65.6 4.1996188163757 311.54998779297 1 delete
10:00:29 60.252683 29.801055 0 64.9 3.8104887008667 308.66000366211 1 delete
10:00:26 60.252615 29.801197 0 65.4 3.0523028373718 315.7799987793 1 delete
10:00:23 60.252553 29.801332 0 66 3.5011405944824 320.23001098633 1 delete
10:00:20 60.252468 29.801453 0 66.8 3.6859257221222 313.23001098633 1 delete
10:00:16 60.252383 29.801647 0 68 3.2020869255066 307.04998779297 1 delete
10:00:13 60.252337 29.801812 0 68.9 3.9710819721222 313.83999633789 1 delete
10:00:10 60.252260 29.802022 0 71.2 4.8069906234741 311.70999145508 1 delete
10:00:07 60.252182 29.802222 0 72.7 5.0777349472046 307.48001098633 1 delete
10:00:04 60.252107 29.802418 0 73.6 4.730297088623 318.95999145508 1 delete
10:00:01 60.252008 29.802612 0 75.2 4.7272090911865 317.20999145508 1 delete
09:59:59 60.251923 29.802702 0 75.3 4.4888925552368 310.19000244141 1 delete
09:59:56 60.251828 29.802907 0 78.6 4.6160287857056 306.86999511719 1 delete
09:59:54 60.251762 29.803033 0 79.8 3.9597580432892 304.35000610352 1 delete
09:59:51 60.251698 29.803195 0 83.6 4.1965303421021 313.76998901367 1 delete
09:59:48 60.251623 29.803400 0 86.7 3.8264451026917 308.04000854492 1 delete
09:59:45 60.251548 29.803578 0 89.5 3.9829206466675 318.89999389648 1 delete
09:59:42 60.251457 29.803708 0 92 4.1677060127258 318.42999267578 1 delete
09:59:39 60.251367 29.803865 0 95.8 3.8851232528687 274.20001220703 1 delete
09:59:36 60.251350 29.804073 0 98.9 4.3699917793274 284.35998535156 1 delete
09:59:34 60.251323 29.804250 0 100.9 4.0565257072449 282.54000854492 1 delete
09:59:31 60.251297 29.804487 0 101.9 3.9576990604401 294.9700012207 1 delete
09:59:28 60.251240 29.804698 0 104 4.587718963623 316.35998535156 1 delete
09:59:24 60.251200 29.804875 0 108.3 3.5170969963074 252.36000061035 1 delete
09:59:22 60.251290 29.804937 0 112.9 3.7415158748627 229.08000183105 1 delete